Time;durP1;ratioP1;P1;durP2;ratioP2;P2;SDS_P1;SDS_P2;PMS_P1;PMS_P2;Temp;Humidity;BMP_temperature;BMP_pressure;BME280_temperature;BME280_humidity;BME280_pressure;Samples;Min_cycle;Max_cycle;Signal;HPM_P1;HPM_P2
2022/12/06 00:00:38;;;;;;;3.30;2.90;;;7.10;89.10;;;;;;5029475;28;20041;-67
2022/12/06 00:03:04;;;;;;;3.35;2.55;;;7.20;89.10;;;;;;5030191;28;20050;-67
2022/12/06 00:05:30;;;;;;;3.80;2.97;;;7.20;89.20;;;;;;5029853;28;20025;-67
2022/12/06 00:07:56;;;;;;;2.88;2.47;;;7.20;89.20;;;;;;5029752;28;20033;-65
2022/12/06 00:10:21;;;;;;;3.17;2.50;;;7.20;89.10;;;;;;5029878;28;20036;-68
2022/12/06 00:12:47;;;;;;;3.55;2.67;;;7.30;89.00;;;;;;5030184;28;20031;-67
2022/12/06 00:15:12;;;;;;;3.63;2.90;;;7.30;88.90;;;;;;5029193;28;20029;-68
2022/12/06 00:17:38;;;;;;;3.50;2.70;;;7.20;88.80;;;;;;5029674;28;20025;-69
2022/12/06 00:20:05;;;;;;;3.50;2.55;;;7.20;88.90;;;;;;5022168;28;20033;-68
2022/12/06 00:22:30;;;;;;;3.60;2.58;;;7.20;89.00;;;;;;5029228;28;20057;-67
2022/12/06 00:24:56;;;;;;;3.83;2.88;;;7.30;88.90;;;;;;5030232;28;20056;-68
2022/12/06 00:27:22;;;;;;;4.00;2.85;;;7.30;88.90;;;;;;5029648;28;20097;-67
2022/12/06 00:29:47;;;;;;;3.63;2.80;;;7.20;88.80;;;;;;5033252;28;20029;-67
2022/12/06 00:32:13;;;;;;;3.35;2.85;;;7.20;88.90;;;;;;5029710;28;20025;-68
2022/12/06 00:34:38;;;;;;;3.38;2.83;;;7.20;88.90;;;;;;5015788;28;20029;-68
2022/12/06 00:37:04;;;;;;;3.67;2.92;;;7.20;88.90;;;;;;5029557;28;20527;-67
2022/12/06 00:39:29;;;;;;;3.17;2.55;;;7.20;88.90;;;;;;5029799;28;20061;-67
2022/12/06 00:41:55;;;;;;;2.85;2.40;;;7.20;88.90;;;;;;5029528;28;20057;-68
2022/12/06 00:44:21;;;;;;;4.32;3.50;;;7.20;89.00;;;;;;5028034;28;20057;-68
2022/12/06 00:46:46;;;;;;;3.90;2.97;;;7.10;89.00;;;;;;5024891;28;20666;-68
2022/12/06 00:49:12;;;;;;;3.63;2.95;;;7.10;89.20;;;;;;5026209;28;20380;-68
2022/12/06 00:51:38;;;;;;;3.58;3.00;;;7.10;89.30;;;;;;5029050;28;20372;-67
2022/12/06 00:54:05;;;;;;;3.70;3.03;;;7.10;89.20;;;;;;5011435;28;20670;-67
2022/12/06 00:56:31;;;;;;;3.17;2.58;;;7.10;89.30;;;;;;5029106;28;20104;-68
2022/12/06 00:58:57;;;;;;;4.47;3.13;;;7.20;89.40;;;;;;5024985;28;20039;-67
2022/12/06 01:01:28;;;;;;;4.20;3.17;;;7.10;89.20;;;;;;5027811;28;20483;-67
2022/12/06 01:03:59;;;;;;;3.95;3.17;;;7.10;89.20;;;;;;5029100;28;20025;-67
2022/12/06 01:06:27;;;;;;;3.50;2.85;;;7.10;89.20;;;;;;5025438;28;20079;-67
2022/12/06 01:08:54;;;;;;;3.35;3.05;;;7.10;89.20;;;;;;5029172;28;20046;-67
2022/12/06 01:11:21;;;;;;;3.85;3.15;;;7.10;89.30;;;;;;5033524;28;20115;-67
2022/12/06 01:13:46;;;;;;;4.88;3.47;;;7.00;89.30;;;;;;5011036;28;20553;-68
2022/12/06 01:16:14;;;;;;;3.17;2.63;;;7.00;89.40;;;;;;5029000;28;20029;-68
2022/12/06 01:18:41;;;;;;;3.38;2.70;;;7.10;89.40;;;;;;5028119;28;20023;-68
2022/12/06 01:21:11;;;;;;;4.15;3.20;;;7.10;89.40;;;;;;5030262;28;20040;-69
2022/12/06 01:23:37;;;;;;;3.92;3.13;;;7.10;89.30;;;;;;5032889;28;20372;-68
2022/12/06 01:26:04;;;;;;;3.95;3.00;;;7.10;89.20;;;;;;5032854;28;20024;-69
2022/12/06 01:28:30;;;;;;;4.35;3.28;;;7.10;89.40;;;;;;5032526;28;20025;-68
2022/12/06 01:30:56;;;;;;;3.67;2.95;;;7.10;89.30;;;;;;5032835;28;20408;-69
2022/12/06 01:33:21;;;;;;;5.53;3.58;;;7.00;89.30;;;;;;5033095;28;20155;-68
2022/12/06 01:35:47;;;;;;;5.35;3.47;;;7.00;89.30;;;;;;5033301;28;20029;-66
2022/12/06 01:38:13;;;;;;;4.35;3.25;;;7.00;89.40;;;;;;5017820;28;20021;-65
2022/12/06 01:40:44;;;;;;;5.55;3.28;;;7.00;89.40;;;;;;5033082;28;20365;-65
2022/12/06 01:43:30;;;;;;;6.28;3.67;;;7.00;89.40;;;;;;5015134;28;20041;-65
2022/12/06 01:45:58;;;;;;;4.68;3.22;;;7.00;89.40;;;;;;5034654;28;20036;-66
2022/12/06 01:48:25;;;;;;;6.50;3.53;;;7.00;89.50;;;;;;5003271;28;20387;-66
2022/12/06 01:50:54;;;;;;;3.83;3.03;;;6.90;89.40;;;;;;5032346;28;20614;-66
2022/12/06 01:53:21;;;;;;;6.72;3.97;;;7.00;89.50;;;;;;5032254;28;20387;-68
2022/12/06 01:55:47;;;;;;;5.65;3.80;;;7.00;89.40;;;;;;5032638;28;20022;-66
2022/12/06 01:58:17;;;;;;;4.18;3.33;;;7.00;89.40;;;;;;5033873;28;20017;-68
2022/12/06 02:00:43;;;;;;;5.43;3.30;;;6.90;89.40;;;;;;5013615;28;20510;-67
2022/12/06 02:03:16;;;;;;;5.28;3.20;;;7.00;89.50;;;;;;5032815;28;20128;-67
2022/12/06 02:05:43;;;;;;;6.63;4.28;;;7.00;89.50;;;;;;5032044;28;20044;-67
2022/12/06 02:08:09;;;;;;;5.50;3.63;;;7.00;89.50;;;;;;5002130;28;20081;-66
2022/12/06 02:10:36;;;;;;;5.47;3.55;;;7.00;89.50;;;;;;5031551;28;20025;-66
2022/12/06 02:13:02;;;;;;;5.85;3.75;;;7.00;89.60;;;;;;5014453;28;20104;-67
2022/12/06 02:15:40;;;;;;;5.60;3.80;;;7.00;89.50;;;;;;5032213;28;20025;-67
2022/12/06 02:18:17;;;;;;;4.68;3.50;;;7.00;89.60;;;;;;5034001;28;20045;-66
2022/12/06 02:21:15;;;;;;;6.22;3.90;;;7.00;89.70;;;;;;5013707;28;20021;-67
2022/12/06 02:24:08;;;;;;;5.90;3.90;;;7.00;89.70;;;;;;4981664;28;20073;-67
2022/12/06 02:26:47;;;;;;;5.60;3.90;;;6.90;89.70;;;;;;5030555;28;20021;-66
2022/12/06 02:29:55;;;;;;;4.60;3.30;;;6.90;89.80;;;;;;5032427;28;20026;-66
2022/12/06 02:32:45;;;;;;;5.70;3.80;;;7.00;89.90;;;;;;5013414;28;20040;-67
2022/12/06 02:35:35;;;;;;;4.88;3.28;;;7.00;89.80;;;;;;5007331;28;20033;-67
2022/12/06 02:38:22;;;;;;;4.45;3.60;;;7.00;89.80;;;;;;5011045;28;20148;-68
2022/12/06 02:40:57;;;;;;;4.80;3.60;;;7.00;89.80;;;;;;5013117;28;20040;-67
2022/12/06 02:43:30;;;;;;;4.35;3.30;;;7.00;89.80;;;;;;5034130;28;20022;-67
2022/12/06 02:45:59;;;;;;;5.15;3.50;;;7.00;89.80;;;;;;5030676;28;20024;-67
2022/12/06 02:48:25;;;;;;;6.88;3.75;;;7.10;89.80;;;;;;5032426;28;20029;-66
2022/12/06 02:51:00;;;;;;;6.35;4.10;;;7.10;89.70;;;;;;5030112;28;20487;-67
2022/12/06 02:53:29;;;;;;;6.95;4.40;;;7.10;89.80;;;;;;5025258;28;20480;-68
2022/12/06 02:55:56;;;;;;;5.95;4.10;;;7.00;89.80;;;;;;5030454;28;20480;-67
2022/12/06 02:58:21;;;;;;;5.00;3.50;;;7.00;89.70;;;;;;5030331;28;20025;-66
2022/12/06 03:01:27;;;;;;;6.53;3.97;;;7.00;89.70;;;;;;5030139;28;20026;-66
2022/12/06 03:04:04;;;;;;;7.85;4.40;;;7.10;89.70;;;;;;5025971;28;20026;-66
2022/12/06 03:06:52;;;;;;;9.07;4.53;;;7.10;89.70;;;;;;5030540;28;20025;-67
2022/12/06 03:09:24;;;;;;;6.45;4.22;;;7.10;89.70;;;;;;5026576;28;20041;-66
2022/12/06 03:12:05;;;;;;;8.30;3.80;;;7.00;89.70;;;;;;5030399;28;20030;-67
2022/12/06 03:14:42;;;;;;;7.80;4.70;;;7.00;89.80;;;;;;5029256;28;20108;-67
2022/12/06 03:17:23;;;;;;;6.78;4.38;;;7.00;89.80;;;;;;5030083;28;20025;-67
2022/12/06 03:19:56;;;;;;;8.18;4.65;;;7.00;89.80;;;;;;5030545;28;20057;-67
2022/12/06 03:22:28;;;;;;;6.93;4.10;;;7.00;89.90;;;;;;5030251;28;20468;-66
2022/12/06 03:24:55;;;;;;;8.38;4.80;;;7.00;90.00;;;;;;5034767;28;20025;-67
2022/12/06 03:27:23;;;;;;;7.22;4.28;;;7.00;89.90;;;;;;5030397;28;20029;-67
2022/12/06 03:29:57;;;;;;;9.23;4.80;;;7.00;89.90;;;;;;5030216;28;20022;-67
2022/12/06 03:32:26;;;;;;;10.20;4.38;;;7.00;89.90;;;;;;5029804;28;20095;-67
2022/12/06 03:34:54;;;;;;;9.57;5.20;;;7.00;89.90;;;;;;5028836;28;20090;-67
2022/12/06 03:37:22;;;;;;;8.32;4.65;;;7.00;89.90;;;;;;5030152;28;20083;-68
2022/12/06 03:39:57;;;;;;;8.63;4.78;;;6.90;89.90;;;;;;5030417;28;20446;-67
2022/12/06 03:42:23;;;;;;;10.23;4.18;;;6.90;90.00;;;;;;5013263;28;20391;-68
2022/12/06 03:44:49;;;;;;;7.50;4.32;;;6.90;90.00;;;;;;5037969;28;20029;-68
2022/12/06 03:47:24;;;;;;;8.48;4.60;;;6.90;90.10;;;;;;5030000;28;20099;-67
2022/12/06 03:49:57;;;;;;;8.13;4.13;;;6.90;90.10;;;;;;5030240;28;20483;-67
2022/12/06 03:52:24;;;;;;;7.07;3.95;;;7.00;90.10;;;;;;5029700;28;20480;-67
2022/12/06 03:54:49;;;;;;;7.00;4.32;;;7.00;90.00;;;;;;5029658;28;20438;-66
2022/12/06 03:57:15;;;;;;;8.93;4.60;;;7.00;90.00;;;;;;5031372;28;20097;-67
2022/12/06 03:59:40;;;;;;;8.50;4.38;;;7.00;90.00;;;;;;5012112;28;20032;-67
2022/12/06 04:02:06;;;;;;;10.63;4.57;;;7.00;90.00;;;;;;5028601;28;20035;-65
2022/12/06 04:04:32;;;;;;;7.53;4.38;;;6.90;90.00;;;;;;5031803;28;20101;-65
2022/12/06 04:06:58;;;;;;;8.05;4.00;;;6.90;90.00;;;;;;5039542;28;20028;-66
2022/12/06 04:12:59;;;;;;;6.30;3.80;;;7.00;90.10;;;;;;5029783;28;20121;-66
2022/12/06 04:14:53;;;;;;;6.55;3.75;;;7.00;90.10;;;;;;5026280;28;20121;-66
2022/12/06 04:20:03;;;;;;;5.78;3.97;;;7.00;90.10;;;;;;5025894;28;20036;-66
2022/12/06 04:25:13;;;;;;;6.10;3.55;;;6.90;90.00;;;;;;5029917;28;20043;-66
2022/12/06 04:38:41;;;;;;;6.78;3.60;;;6.90;90.10;;;;;;5029242;28;20036;-67
2022/12/06 04:41:07;;;;;;;7.10;3.63;;;7.00;90.10;;;;;;5034259;28;20546;-67
2022/12/06 04:43:42;;;;;;;5.15;3.35;;;7.00;90.10;;;;;;5019328;28;20496;-68
2022/12/06 04:46:12;;;;;;;8.35;3.50;;;7.00;90.10;;;;;;5028657;28;20037;-68
2022/12/06 04:48:39;;;;;;;7.03;3.72;;;7.00;90.00;;;;;;5027780;28;20033;-67
2022/12/06 04:51:05;;;;;;;5.32;3.53;;;7.00;90.10;;;;;;5026050;28;20025;-68
2022/12/06 04:53:30;;;;;;;7.00;4.00;;;7.00;90.10;;;;;;5029262;28;20112;-67
2022/12/06 04:55:56;;;;;;;6.03;3.80;;;7.00;90.00;;;;;;5029934;28;20032;-64
2022/12/06 04:58:22;;;;;;;7.25;3.50;;;7.00;90.00;;;;;;5033248;28;20025;-66
2022/12/06 05:00:50;;;;;;;5.00;3.08;;;7.00;90.00;;;;;;5032785;28;20382;-67
2022/12/06 05:03:16;;;;;;;3.85;2.92;;;7.00;90.30;;;;;;5033209;28;20025;-68
2022/12/06 05:05:42;;;;;;;5.95;3.20;;;7.00;90.00;;;;;;5022444;28;20482;-67
2022/12/06 05:08:08;;;;;;;6.47;3.50;;;7.00;90.00;;;;;;5016432;28;20627;-66
2022/12/06 05:10:34;;;;;;;5.43;3.10;;;7.00;90.00;;;;;;5033048;28;20036;-68
2022/12/06 05:13:00;;;;;;;4.63;3.22;;;7.00;89.90;;;;;;5034269;28;20040;-67
2022/12/06 05:15:27;;;;;;;7.18;3.25;;;7.00;90.20;;;;;;5032853;28;20040;-68
2022/12/06 05:17:52;;;;;;;6.10;3.05;;;6.90;89.80;;;;;;5032935;28;20072;-67
2022/12/06 05:20:18;;;;;;;6.15;3.35;;;6.90;89.80;;;;;;5034451;28;20064;-68
2022/12/06 05:22:44;;;;;;;8.02;3.30;;;6.90;89.70;;;;;;5015993;28;20033;-67
2022/12/06 05:25:10;;;;;;;6.70;3.40;;;6.90;89.80;;;;;;5032729;28;20040;-67
2022/12/06 05:27:35;;;;;;;4.65;2.95;;;6.90;89.60;;;;;;5033469;28;20018;-67
2022/12/06 05:30:01;;;;;;;6.28;2.78;;;6.90;89.70;;;;;;5032173;28;20105;-68
2022/12/06 05:32:26;;;;;;;6.30;3.20;;;6.90;89.80;;;;;;5033030;28;20458;-67
2022/12/06 05:34:52;;;;;;;6.35;3.05;;;6.90;89.70;;;;;;5032471;28;20030;-67
2022/12/06 05:37:17;;;;;;;5.93;3.20;;;6.90;89.80;;;;;;5032803;28;20028;-68
2022/12/06 05:39:43;;;;;;;4.53;2.75;;;6.90;89.70;;;;;;5032391;28;20438;-68
2022/12/06 05:42:08;;;;;;;4.90;3.17;;;6.90;89.80;;;;;;5040731;28;20483;-68
2022/12/06 05:44:34;;;;;;;5.20;2.70;;;6.90;89.70;;;;;;5043561;28;20021;-68
2022/12/06 05:47:00;;;;;;;5.05;3.28;;;6.90;89.70;;;;;;5031949;28;20066;-68
2022/12/06 05:49:26;;;;;;;5.68;2.72;;;6.90;89.60;;;;;;5030118;28;20029;-67
2022/12/06 05:51:52;;;;;;;3.38;2.53;;;6.90;89.60;;;;;;5032369;28;20041;-69
2022/12/06 05:54:18;;;;;;;5.03;3.05;;;6.90;89.70;;;;;;5030910;28;20025;-68
2022/12/06 05:56:44;;;;;;;6.75;3.35;;;7.00;89.70;;;;;;5031965;28;20383;-69
2022/12/06 05:59:09;;;;;;;5.43;3.10;;;7.00;89.60;;;;;;5014006;28;20124;-67
2022/12/06 06:01:35;;;;;;;6.38;3.20;;;7.00;89.60;;;;;;5032395;28;20033;-67
2022/12/06 06:04:00;;;;;;;6.25;2.83;;;7.00;89.50;;;;;;5033053;28;20033;-68
2022/12/06 06:06:26;;;;;;;6.00;2.80;;;7.00;89.50;;;;;;5014127;28;20036;-66
2022/12/06 06:08:52;;;;;;;4.55;3.15;;;6.90;89.40;;;;;;5031683;28;20022;-67
2022/12/06 06:11:18;;;;;;;6.65;2.88;;;7.00;89.50;;;;;;5031743;28;20039;-68
2022/12/06 06:13:43;;;;;;;4.63;2.92;;;7.00;89.40;;;;;;5032068;28;20033;-66
2022/12/06 06:16:09;;;;;;;6.22;3.28;;;7.00;89.40;;;;;;5027792;28;20029;-68
2022/12/06 06:18:34;;;;;;;6.75;3.70;;;6.90;89.30;;;;;;5011511;28;20530;-66
2022/12/06 06:21:00;;;;;;;7.05;4.15;;;6.90;89.30;;;;;;5030316;28;20037;-68
2022/12/06 06:23:27;;;;;;;4.80;3.50;;;6.90;89.40;;;;;;5027426;28;20018;-67
2022/12/06 06:25:53;;;;;;;8.05;5.30;;;6.90;89.50;;;;;;5022849;28;20037;-67
2022/12/06 06:28:20;;;;;;;7.00;4.13;;;6.90;89.50;;;;;;5030081;28;20025;-66
2022/12/06 06:30:46;;;;;;;6.45;3.78;;;6.90;89.40;;;;;;5028402;28;20060;-68
2022/12/06 06:33:11;;;;;;;5.45;3.40;;;6.90;89.40;;;;;;5025020;28;20022;-66
2022/12/06 06:35:37;;;;;;;7.75;3.90;;;6.90;89.40;;;;;;5029119;28;20064;-67
2022/12/06 06:38:03;;;;;;;6.03;3.80;;;6.90;89.40;;;;;;5009277;28;20018;-67
2022/12/06 06:40:29;;;;;;;9.52;6.88;;;6.90;89.40;;;;;;5030055;28;20025;-68
2022/12/06 06:42:55;;;;;;;6.30;4.10;;;6.90;89.40;;;;;;5030607;28;20028;-67
2022/12/06 06:45:20;;;;;;;5.75;3.92;;;6.90;89.40;;;;;;5029755;28;20342;-67
2022/12/06 06:47:46;;;;;;;6.30;4.10;;;6.90;89.40;;;;;;5030619;28;20089;-66
2022/12/06 06:50:12;;;;;;;5.60;3.30;;;6.80;89.30;;;;;;5030243;28;20025;-67
2022/12/06 06:52:37;;;;;;;5.53;3.17;;;6.80;89.50;;;;;;5030177;28;20040;-67
2022/12/06 06:55:03;;;;;;;5.65;3.75;;;6.80;89.40;;;;;;5030533;28;20477;-67
2022/12/06 06:57:28;;;;;;;5.38;3.33;;;6.80;89.40;;;;;;5008726;28;20147;-67
2022/12/06 06:59:55;;;;;;;5.90;3.47;;;6.80;89.50;;;;;;5026458;28;20033;-66
2022/12/06 07:02:20;;;;;;;5.35;3.30;;;6.80;89.60;;;;;;5010200;28;20052;-66
2022/12/06 07:04:46;;;;;;;6.03;3.47;;;6.80;89.50;;;;;;5023980;28;20026;-66
2022/12/06 07:07:12;;;;;;;6.53;3.70;;;6.80;89.50;;;;;;5024851;28;20105;-68
2022/12/06 07:09:37;;;;;;;5.50;3.42;;;6.80;89.50;;;;;;5025008;28;20056;-68
2022/12/06 07:12:04;;;;;;;23.40;12.10;;;6.80;89.60;;;;;;5028887;28;20037;-67
2022/12/06 07:14:30;;;;;;;32.78;13.52;;;6.80;89.60;;;;;;5028164;28;20087;-68
2022/12/06 07:16:55;;;;;;;72.85;25.17;;;6.80;89.50;;;;;;5030035;28;20033;-67
2022/12/06 07:19:21;;;;;;;40.05;16.17;;;6.70;89.60;;;;;;5029554;28;20030;-66
2022/12/06 07:21:47;;;;;;;28.35;12.85;;;6.80;89.60;;;;;;5029462;28;20044;-66
2022/12/06 07:24:13;;;;;;;20.40;10.43;;;6.80;89.70;;;;;;5030374;28;20025;-66
2022/12/06 07:26:38;;;;;;;11.52;6.60;;;6.80;89.80;;;;;;5012536;28;20070;-67
2022/12/06 07:29:04;;;;;;;9.48;4.93;;;6.80;89.60;;;;;;5028778;28;20036;-67
2022/12/06 07:31:30;;;;;;;7.93;4.53;;;6.80;89.60;;;;;;5024236;28;20033;-67
2022/12/06 07:33:58;;;;;;;6.07;3.83;;;6.80;89.60;;;;;;5010670;28;20109;-67
2022/12/06 07:36:26;;;;;;;7.68;3.65;;;6.80;89.60;;;;;;5029210;28;20033;-67
2022/12/06 07:38:55;;;;;;;5.07;3.47;;;6.80;89.50;;;;;;5029932;28;20036;-66
2022/12/06 07:46:55;;;;;;;4.82;3.22;;;6.80;89.60;;;;;;5027754;28;20040;-66
2022/12/06 07:49:21;;;;;;;5.07;3.35;;;6.80;90.10;;;;;;5027692;28;20109;-67
2022/12/06 07:51:47;;;;;;;7.28;3.50;;;6.80;89.50;;;;;;5029195;28;20492;-69
2022/12/06 07:54:13;;;;;;;6.07;3.30;;;6.80;89.50;;;;;;5027309;28;20053;-66
2022/12/06 07:56:39;;;;;;;4.80;3.00;;;6.80;89.50;;;;;;5026518;28;20395;-66
2022/12/06 07:59:05;;;;;;;4.07;2.70;;;6.90;89.60;;;;;;5029169;28;20025;-67
2022/12/06 08:01:30;;;;;;;4.90;2.58;;;6.90;89.50;;;;;;5035516;28;20036;-66
2022/12/06 08:04:02;;;;;;;5.13;3.05;;;6.90;89.50;;;;;;5035027;28;20031;-67
2022/12/06 08:06:29;;;;;;;4.85;3.05;;;6.90;89.50;;;;;;5027236;28;20044;-67
2022/12/06 08:08:55;;;;;;;4.38;3.08;;;6.90;89.30;;;;;;5010954;28;20021;-66
2022/12/06 08:11:21;;;;;;;4.50;3.28;;;6.90;89.30;;;;;;5029272;28;20503;-66
2022/12/06 08:13:47;;;;;;;4.70;3.13;;;7.00;89.30;;;;;;5021410;28;20030;-66
2022/12/06 08:16:13;;;;;;;6.53;2.80;;;7.00;89.20;;;;;;5028556;28;20057;-66
2022/12/06 08:18:39;;;;;;;4.97;3.20;;;7.00;89.20;;;;;;5028495;28;20106;-68
2022/12/06 08:21:05;;;;;;;4.13;2.60;;;7.00;89.20;;;;;;5024396;28;20111;-66
2022/12/06 08:23:32;;;;;;;5.88;3.15;;;7.00;89.10;;;;;;5027987;28;20021;-67
2022/12/06 08:25:59;;;;;;;4.13;2.80;;;7.00;89.20;;;;;;5020636;28;20022;-67
2022/12/06 08:28:25;;;;;;;4.30;2.90;;;7.00;89.20;;;;;;5033247;28;20396;-66
2022/12/06 08:30:51;;;;;;;4.65;2.75;;;7.10;89.20;;;;;;5027039;28;20132;-67
2022/12/06 08:33:16;;;;;;;4.65;2.60;;;7.10;89.00;;;;;;5029892;28;20053;-67
2022/12/06 08:35:42;;;;;;;4.93;2.70;;;7.00;88.70;;;;;;5028659;28;20025;-68
2022/12/06 08:38:08;;;;;;;3.85;2.60;;;6.90;88.90;;;;;;5027555;28;20067;-68
2022/12/06 08:40:34;;;;;;;3.85;2.78;;;6.90;88.90;;;;;;5024595;28;20032;-67
2022/12/06 08:42:59;;;;;;;5.13;2.95;;;6.90;89.00;;;;;;5032179;28;20033;-66
2022/12/06 08:45:25;;;;;;;5.75;2.90;;;6.80;89.00;;;;;;5028128;28;20076;-67
2022/12/06 08:47:50;;;;;;;4.95;2.90;;;6.80;89.00;;;;;;5029540;28;20071;-68
2022/12/06 08:50:16;;;;;;;4.43;2.83;;;6.70;89.00;;;;;;5030742;28;20029;-66
2022/12/06 08:52:41;;;;;;;4.55;2.42;;;6.70;89.00;;;;;;5029481;28;20025;-67
2022/12/06 08:55:07;;;;;;;5.90;2.88;;;6.70;89.10;;;;;;5031172;28;20033;-66
2022/12/06 08:57:33;;;;;;;3.95;3.03;;;6.70;89.10;;;;;;5030305;28;20025;-67
2022/12/06 08:59:58;;;;;;;4.05;2.90;;;6.70;89.20;;;;;;5014264;28;20451;-68
2022/12/06 09:02:24;;;;;;;4.38;2.30;;;6.70;89.20;;;;;;5002029;28;20116;-66
2022/12/06 09:04:50;;;;;;;3.83;2.95;;;6.70;89.30;;;;;;5023660;28;20458;-66
2022/12/06 09:07:17;;;;;;;6.07;4.20;;;6.70;89.10;;;;;;5031282;28;20049;-66
2022/12/06 09:09:44;;;;;;;6.13;3.50;;;6.70;89.00;;;;;;5026897;28;20021;-66
2022/12/06 09:12:11;;;;;;;4.03;2.70;;;6.70;89.00;;;;;;5030900;28;20391;-67
2022/12/06 09:14:36;;;;;;;4.90;2.80;;;6.70;89.00;;;;;;5031346;28;20030;-67
2022/12/06 09:17:04;;;;;;;3.75;2.80;;;6.70;89.10;;;;;;5031060;28;20179;-66
2022/12/06 09:19:30;;;;;;;3.75;2.70;;;6.70;89.00;;;;;;5031673;28;20379;-68
2022/12/06 09:21:55;;;;;;;4.57;3.28;;;6.70;89.00;;;;;;5028792;28;20036;-68
2022/12/06 09:24:22;;;;;;;6.35;3.60;;;6.70;88.90;;;;;;5028252;28;20026;-67
2022/12/06 09:26:47;;;;;;;5.35;3.20;;;6.80;89.00;;;;;;5016096;28;20021;-66
2022/12/06 09:29:15;;;;;;;5.85;3.13;;;6.80;89.40;;;;;;5019204;28;20055;-66
2022/12/06 09:31:41;;;;;;;6.90;3.28;;;6.80;89.10;;;;;;5034955;28;20026;-66
2022/12/06 09:34:11;;;;;;;4.88;2.70;;;6.80;88.80;;;;;;5028308;28;20037;-66
2022/12/06 09:36:47;;;;;;;4.43;2.83;;;6.80;88.60;;;;;;5015649;28;20023;-66
2022/12/06 09:39:27;;;;;;;3.45;2.63;;;6.80;88.60;;;;;;5030191;28;20040;-67
2022/12/06 09:42:27;;;;;;;3.25;2.30;;;6.80;88.60;;;;;;5029868;28;20029;-65
2022/12/06 09:45:14;;;;;;;3.13;2.65;;;6.80;88.80;;;;;;5008303;28;20034;-66
2022/12/06 09:48:09;;;;;;;5.43;2.65;;;6.80;88.80;;;;;;5017959;28;20451;-66
2022/12/06 09:50:57;;;;;;;4.20;2.60;;;6.80;88.90;;;;;;4998105;28;20033;-67
2022/12/06 09:53:38;;;;;;;5.55;2.90;;;6.80;88.70;;;;;;5028024;28;20056;-66
2022/12/06 09:56:07;;;;;;;5.70;2.92;;;6.80;88.90;;;;;;5029746;28;20033;-66
2022/12/06 09:58:59;;;;;;;4.53;2.58;;;6.80;88.90;;;;;;5023760;28;20434;-66
2022/12/06 10:01:39;;;;;;;5.13;2.80;;;6.80;88.80;;;;;;5028463;28;20024;-66
2022/12/06 10:04:31;;;;;;;4.40;2.53;;;6.90;88.80;;;;;;5028359;28;20029;-68
2022/12/06 10:07:37;;;;;;;4.40;2.63;;;6.90;88.80;;;;;;5026252;28;20075;-65
2022/12/06 10:10:25;;;;;;;6.45;2.92;;;6.90;88.90;;;;;;5028530;28;20026;-67
2022/12/06 10:13:05;;;;;;;4.80;3.10;;;6.90;88.70;;;;;;5019651;28;20404;-67
2022/12/06 10:16:08;;;;;;;5.72;2.60;;;7.00;88.70;;;;;;5021399;28;20029;-67
2022/12/06 10:18:48;;;;;;;5.40;2.70;;;7.00;88.70;;;;;;5027293;28;20108;-67
2022/12/06 10:21:45;;;;;;;5.47;2.67;;;7.00;88.60;;;;;;5028763;28;20419;-67
2022/12/06 10:24:26;;;;;;;4.65;2.60;;;7.00;88.50;;;;;;5028855;28;20072;-66
2022/12/06 10:26:59;;;;;;;3.38;2.25;;;7.10;88.50;;;;;;5032003;28;20029;-65
2022/12/06 10:29:55;;;;;;;3.58;2.20;;;7.10;88.40;;;;;;5014620;28;20020;-67
2022/12/06 10:32:24;;;;;;;4.07;2.65;;;7.20;88.40;;;;;;5013698;28;20064;-68
2022/12/06 10:34:55;;;;;;;5.00;2.40;;;7.20;88.20;;;;;;5026609;28;20018;-67
2022/12/06 10:37:40;;;;;;;5.28;2.75;;;7.20;88.10;;;;;;5009375;28;20080;-68
2022/12/06 10:40:15;;;;;;;4.00;2.35;;;7.30;87.90;;;;;;5025530;28;20065;-66
2022/12/06 10:42:48;;;;;;;3.40;2.17;;;7.30;87.80;;;;;;5026324;28;20068;-68
2022/12/06 10:48:25;;;;;;;3.38;2.20;;;7.40;87.60;;;;;;5033002;28;20043;-68
2022/12/06 10:50:58;;;;;;;3.40;1.85;;;7.40;87.40;;;;;;5030607;28;20028;-65
2022/12/06 10:53:28;;;;;;;4.28;2.20;;;7.40;87.40;;;;;;5026803;28;20018;-66
2022/12/06 10:56:04;;;;;;;3.60;2.20;;;7.40;87.20;;;;;;5022050;28;20115;-67
2022/12/06 10:58:50;;;;;;;2.22;1.77;;;7.50;87.10;;;;;;5025236;28;20078;-69
2022/12/06 11:01:31;;;;;;;3.47;1.80;;;7.50;87.00;;;;;;5039929;28;20049;-66
2022/12/06 11:04:27;;;;;;;3.47;1.92;;;7.50;86.90;;;;;;5030218;28;20025;-66
2022/12/06 11:07:01;;;;;;;3.08;1.88;;;7.60;86.80;;;;;;5028425;28;20060;-65
2022/12/06 11:09:33;;;;;;;3.25;1.88;;;7.70;86.70;;;;;;5024083;28;20018;-66
2022/12/06 11:11:58;;;;;;;;;;;7.80;86.60;;;;;;5028120;28;20065;-68
2022/12/06 11:14:40;;;;;;;3.88;2.13;;;7.80;86.40;;;;;;5026937;28;20402;-67
2022/12/06 11:17:16;;;;;;;3.78;2.10;;;7.80;86.00;;;;;;5027231;28;20037;-68
2022/12/06 11:19:49;;;;;;;2.78;2.03;;;7.80;85.70;;;;;;5030256;28;20412;-66
2022/12/06 11:22:50;;;;;;;3.17;2.10;;;7.80;85.50;;;;;;5027461;28;20396;-68
2022/12/06 11:25:21;;;;;;;3.55;1.77;;;7.90;85.30;;;;;;4947417;29;20224;-67
2022/12/06 11:27:54;;;;;;;4.18;2.10;;;8.00;85.10;;;;;;5010970;28;20412;-67
2022/12/06 11:30:20;;;;;;;3.42;1.90;;;8.00;85.00;;;;;;5030704;28;20112;-69
2022/12/06 11:32:49;;;;;;;2.92;1.90;;;8.20;84.90;;;;;;5026498;28;21645;-65
2022/12/06 11:35:18;;;;;;;3.45;2.35;;;8.40;84.40;;;;;;5026654;28;20022;-66
2022/12/06 11:37:45;;;;;;;4.53;2.25;;;8.50;83.90;;;;;;5026304;28;20029;-65
2022/12/06 11:40:35;;;;;;;3.78;1.88;;;8.50;83.30;;;;;;5031124;28;20056;-67
2022/12/06 11:43:06;;;;;;;2.40;1.80;;;8.60;83.10;;;;;;5035337;28;20029;-68
2022/12/06 11:45:34;;;;;;;4.47;2.17;;;8.60;83.00;;;;;;5025653;28;20671;-68
2022/12/06 11:48:06;;;;;;;3.13;2.08;;;8.60;82.80;;;;;;5029439;28;20027;-68
2022/12/06 11:50:34;;;;;;;4.18;2.00;;;8.70;82.70;;;;;;5010885;28;20029;-69
2022/12/06 11:53:07;;;;;;;4.05;2.03;;;8.70;82.50;;;;;;5031659;28;20479;-68
2022/12/06 11:55:41;;;;;;;3.55;2.10;;;8.70;82.20;;;;;;5026433;28;20033;-67
2022/12/06 11:58:09;;;;;;;3.42;2.10;;;8.70;81.90;;;;;;5028372;28;20045;-68
2022/12/06 12:00:35;;;;;;;3.33;1.90;;;8.70;81.60;;;;;;5025702;28;20029;-67
2022/12/06 12:03:01;;;;;;;3.47;1.90;;;8.70;81.40;;;;;;5027710;28;20522;-66
2022/12/06 12:05:37;;;;;;;4.45;2.40;;;8.70;81.40;;;;;;5024779;28;20021;-67
2022/12/06 12:08:16;;;;;;;4.30;2.15;;;8.80;81.10;;;;;;5026580;28;20029;-66
2022/12/06 12:10:43;;;;;;;3.13;2.00;;;8.80;81.00;;;;;;5022357;28;20453;-67
2022/12/06 12:16:00;;;;;;;4.68;1.90;;;9.00;80.60;;;;;;5024772;28;20044;-66
2022/12/06 12:18:30;;;;;;;4.57;2.28;;;9.00;80.60;;;;;;5022609;28;20033;-66
2022/12/06 12:20:57;;;;;;;4.35;2.40;;;9.10;80.50;;;;;;5028262;28;20032;-65
2022/12/06 12:23:43;;;;;;;2.55;1.85;;;9.10;79.90;;;;;;5028257;28;20036;-67
2022/12/06 12:26:16;;;;;;;3.90;2.20;;;9.10;79.90;;;;;;5018246;28;20021;-67
2022/12/06 12:28:44;;;;;;;4.88;2.10;;;9.00;79.80;;;;;;5026498;28;20037;-67
2022/12/06 12:31:16;;;;;;;2.83;2.00;;;9.10;79.70;;;;;;5031912;28;20048;-65
2022/12/06 12:33:42;;;;;;;3.10;2.10;;;9.10;79.60;;;;;;5023799;28;20025;-67
2022/12/06 12:36:20;;;;;;;3.60;1.90;;;9.00;79.50;;;;;;5028059;28;20021;-67
2022/12/06 12:38:59;;;;;;;4.22;2.00;;;9.00;79.50;;;;;;5026739;28;20041;-68
2022/12/06 12:41:42;;;;;;;5.07;3.40;;;9.10;79.50;;;;;;5017815;28;20030;-68
2022/12/06 12:44:15;;;;;;;4.72;2.90;;;9.10;79.30;;;;;;5016346;28;20034;-65
2022/12/06 12:46:49;;;;;;;8.10;4.38;;;9.00;79.30;;;;;;5027418;28;20022;-67
2022/12/06 12:49:33;;;;;;;3.75;2.70;;;9.00;79.20;;;;;;5027456;28;20024;-66
2022/12/06 12:52:00;;;;;;;3.75;2.20;;;9.00;78.80;;;;;;5025999;28;20039;-68
2022/12/06 12:54:36;;;;;;;4.18;2.28;;;9.00;78.70;;;;;;5030536;28;20033;-68
2022/12/06 12:57:10;;;;;;;3.58;2.15;;;9.00;79.40;;;;;;5029311;28;20032;-69
2022/12/06 12:59:39;;;;;;;2.88;2.00;;;8.90;78.60;;;;;;5027810;28;20507;-66
2022/12/06 13:02:19;;;;;;;3.85;2.08;;;8.90;78.70;;;;;;5029250;28;20043;-66
2022/12/06 13:04:48;;;;;;;5.50;2.05;;;8.90;78.60;;;;;;5025152;28;20614;-67
2022/12/06 13:07:17;;;;;;;3.55;2.00;;;8.90;78.60;;;;;;5029774;28;20425;-68
2022/12/06 13:09:59;;;;;;;3.28;2.00;;;8.90;78.50;;;;;;5027162;28;20031;-66
2022/12/06 13:12:42;;;;;;;3.80;1.92;;;8.90;78.30;;;;;;5028460;28;20086;-67
2022/12/06 13:15:10;;;;;;;2.97;1.90;;;8.90;78.30;;;;;;5025643;28;20037;-67
2022/12/06 13:17:40;;;;;;;2.60;1.80;;;8.90;78.30;;;;;;5030287;28;20033;-67
2022/12/06 13:20:25;;;;;;;4.07;1.70;;;8.90;78.10;;;;;;5031433;28;20022;-67
2022/12/06 13:22:54;;;;;;;2.72;1.67;;;8.90;78.00;;;;;;5028189;28;20041;-68
2022/12/06 13:25:20;;;;;;;2.65;1.60;;;8.90;77.90;;;;;;5038236;28;20616;-67
2022/12/06 13:27:51;;;;;;;2.33;1.60;;;8.90;77.80;;;;;;5031462;28;20025;-67
2022/12/06 13:30:16;;;;;;;3.35;1.85;;;8.90;77.80;;;;;;5032319;28;20014;-67
2022/12/06 13:32:56;;;;;;;2.70;1.67;;;8.90;77.80;;;;;;5030518;28;20032;-67
2022/12/06 13:35:32;;;;;;;2.95;1.90;;;8.80;77.70;;;;;;5020104;28;20476;-65
2022/12/06 13:38:01;;;;;;;2.65;1.70;;;8.80;77.80;;;;;;5027666;28;20079;-66
2022/12/06 13:40:32;;;;;;;3.78;1.98;;;8.80;77.90;;;;;;5026752;28;20028;-67
2022/12/06 13:43:22;;;;;;;2.83;2.03;;;8.80;78.00;;;;;;5028191;28;20384;-67
2022/12/06 13:46:08;;;;;;;4.03;2.35;;;8.80;78.10;;;;;;5030975;28;20707;-66